BHS238 KMCO-MYNN
Flight info
| Callsign | BHS238 |
|---|---|
| Flight time | 0h 42m |
| Altitude | 37000 |
| Route | DDANY3 JIPOD DCT JUNIP DCT ZFP BR63V ZQA |
| Aircraft | B737/M-SDE2E3FGHIRWXY/LB1 |
Departure
| Time | 2026-05-07 01:45 |
|---|---|
| Airport | Orlando International Airport (KMCO) |
Arrival
| Time | 2026-05-07 02:27 |
|---|---|
| Airport | Lynden Pindling International Airport (MYNN) |
| Time | Latitude | Longitude | Altitude | Speed | Heading |
|---|---|---|---|---|---|
| 2026-05-07 01:24 | 28.42753 | -81.30252 | 93 ft | 0 kts | 189° |
| 2026-05-07 01:37 | 28.42760 | -81.30251 | 93 ft | 4 kts | 189° |
| 2026-05-07 01:37 | 28.42781 | -81.30246 | 94 ft | 4 kts | 179° |
| 2026-05-07 01:37 | 28.42803 | -81.30257 | 93 ft | 4 kts | 131° |
| 2026-05-07 01:37 | 28.42817 | -81.30277 | 93 ft | 4 kts | 129° |
| 2026-05-07 01:38 | 28.42833 | -81.30295 | 93 ft | 2 kts | 144° |
| 2026-05-07 01:38 | 28.42846 | -81.30306 | 92 ft | 0 kts | 144° |
| 2026-05-07 01:39 | 28.42845 | -81.30305 | 93 ft | 1 kts | 151° |
| 2026-05-07 01:40 | 28.42834 | -81.30315 | 95 ft | 4 kts | 246° |
| 2026-05-07 01:40 | 28.42813 | -81.30371 | 96 ft | 11 kts | 242° |
| 2026-05-07 01:40 | 28.42748 | -81.30456 | 94 ft | 18 kts | 208° |
| 2026-05-07 01:40 | 28.42616 | -81.30437 | 93 ft | 22 kts | 141° |
| 2026-05-07 01:41 | 28.42473 | -81.30402 | 94 ft | 24 kts | 179° |
| 2026-05-07 01:41 | 28.42293 | -81.30390 | 93 ft | 24 kts | 148° |
| 2026-05-07 01:41 | 28.42277 | -81.30193 | 93 ft | 21 kts | 85° |
| 2026-05-07 01:41 | 28.42362 | -81.30064 | 93 ft | 30 kts | 90° |
| 2026-05-07 01:42 | 28.42377 | -81.29829 | 95 ft | 24 kts | 58° |
| 2026-05-07 01:42 | 28.42597 | -81.29797 | 96 ft | 42 kts | 360° |
| 2026-05-07 01:42 | 28.42883 | -81.29800 | 95 ft | 40 kts | 359° |
| 2026-05-07 01:42 | 28.43151 | -81.29802 | 95 ft | 37 kts | 0° |
| 2026-05-07 01:43 | 28.43397 | -81.29805 | 94 ft | 34 kts | 359° |
| 2026-05-07 01:43 | 28.43544 | -81.29777 | 94 ft | 11 kts | 69° |
| 2026-05-07 01:43 | 28.43546 | -81.29610 | 97 ft | 21 kts | 108° |
| 2026-05-07 01:43 | 28.43511 | -81.29588 | 98 ft | 0 kts | 179° |
| 2026-05-07 01:44 | 28.43301 | -81.29584 | 99 ft | 68 kts | 179° |
| 2026-05-07 01:44 | 28.42571 | -81.29576 | 97 ft | 139 kts | 180° |
| 2026-05-07 01:44 | 28.41479 | -81.29577 | 523 ft | 158 kts | 180° |
| 2026-05-07 01:45 | 28.40378 | -81.29620 | 1265 ft | 169 kts | 180° |
| 2026-05-07 01:45 | 28.39068 | -81.29560 | 1523 ft | 205 kts | 167° |
| 2026-05-07 01:45 | 28.37695 | -81.28991 | 2206 ft | 217 kts | 152° |
| 2026-05-07 01:45 | 28.36336 | -81.28065 | 2904 ft | 239 kts | 148° |
| 2026-05-07 01:46 | 28.34907 | -81.26829 | 3463 ft | 269 kts | 140° |
| 2026-05-07 01:46 | 28.33632 | -81.25308 | 4786 ft | 269 kts | 124° |
| 2026-05-07 01:46 | 28.33021 | -81.23286 | 5938 ft | 272 kts | 99° |
| 2026-05-07 01:46 | 28.32744 | -81.21168 | 7165 ft | 273 kts | 97° |
| 2026-05-07 01:47 | 28.32482 | -81.19007 | 8140 ft | 279 kts | 97° |
| 2026-05-07 01:47 | 28.32208 | -81.16796 | 9117 ft | 287 kts | 98° |
| 2026-05-07 01:47 | 28.31916 | -81.14530 | 10106 ft | 293 kts | 98° |
| 2026-05-07 01:47 | 28.31604 | -81.12180 | 10657 ft | 314 kts | 98° |
| 2026-05-07 01:48 | 28.31260 | -81.09648 | 11233 ft | 330 kts | 97° |
| 2026-05-07 01:48 | 28.30900 | -81.07047 | 12070 ft | 337 kts | 97° |
| 2026-05-07 01:48 | 28.30535 | -81.04432 | 12933 ft | 342 kts | 98° |
| 2026-05-07 01:48 | 28.30158 | -81.01747 | 13834 ft | 347 kts | 97° |
| 2026-05-07 01:49 | 28.29774 | -80.99025 | 14589 ft | 354 kts | 98° |
| 2026-05-07 01:49 | 28.29374 | -80.96200 | 15332 ft | 361 kts | 98° |
| 2026-05-07 01:49 | 28.28979 | -80.93404 | 16077 ft | 367 kts | 98° |
| 2026-05-07 01:49 | 28.28570 | -80.90524 | 16822 ft | 373 kts | 98° |
| 2026-05-07 01:50 | 28.28151 | -80.87595 | 17566 ft | 379 kts | 99° |
| 2026-05-07 01:50 | 28.27497 | -80.84681 | 18270 ft | 386 kts | 110° |
| 2026-05-07 01:50 | 28.26494 | -80.81826 | 18906 ft | 392 kts | 113° |
| 2026-05-07 01:50 | 28.25423 | -80.78960 | 19514 ft | 398 kts | 113° |
| 2026-05-07 01:51 | 28.24333 | -80.76048 | 20113 ft | 405 kts | 113° |
| 2026-05-07 01:51 | 28.23244 | -80.73080 | 20733 ft | 411 kts | 112° |
| 2026-05-07 01:51 | 28.22150 | -80.70055 | 21342 ft | 417 kts | 112° |
| 2026-05-07 01:51 | 28.21050 | -80.66992 | 21944 ft | 423 kts | 111° |
| 2026-05-07 01:52 | 28.19978 | -80.63860 | 22538 ft | 429 kts | 110° |
| 2026-05-07 01:52 | 28.18935 | -80.60686 | 23106 ft | 435 kts | 110° |
| 2026-05-07 01:52 | 28.17882 | -80.57445 | 23670 ft | 441 kts | 110° |
| 2026-05-07 01:52 | 28.16813 | -80.54169 | 24171 ft | 446 kts | 110° |
| 2026-05-07 01:53 | 28.15727 | -80.50863 | 24717 ft | 449 kts | 110° |
| 2026-05-07 01:53 | 28.14692 | -80.47728 | 25246 ft | 452 kts | 110° |
| 2026-05-07 01:53 | 28.13582 | -80.44383 | 25782 ft | 456 kts | 110° |
| 2026-05-07 01:53 | 28.12461 | -80.41006 | 26301 ft | 460 kts | 110° |
| 2026-05-07 01:54 | 28.11340 | -80.37637 | 26805 ft | 464 kts | 111° |
| 2026-05-07 01:54 | 28.09977 | -80.34461 | 27256 ft | 468 kts | 123° |
| 2026-05-07 01:54 | 28.08120 | -80.31674 | 27732 ft | 469 kts | 135° |
| 2026-05-07 01:54 | 28.05790 | -80.29230 | 28231 ft | 468 kts | 147° |
| 2026-05-07 01:55 | 28.03087 | -80.27175 | 28739 ft | 469 kts | 151° |
| 2026-05-07 01:55 | 28.00424 | -80.25273 | 29203 ft | 471 kts | 152° |
| 2026-05-07 01:55 | 27.97651 | -80.23322 | 29687 ft | 475 kts | 152° |
| 2026-05-07 01:55 | 27.94843 | -80.21337 | 30142 ft | 479 kts | 152° |
| 2026-05-07 01:56 | 27.92016 | -80.19319 | 30520 ft | 482 kts | 151° |
| 2026-05-07 01:56 | 27.89211 | -80.17298 | 30923 ft | 485 kts | 151° |
| 2026-05-07 01:56 | 27.86400 | -80.15258 | 31334 ft | 487 kts | 150° |
| 2026-05-07 01:56 | 27.83552 | -80.13184 | 31726 ft | 489 kts | 150° |
| 2026-05-07 01:57 | 27.80680 | -80.11091 | 32095 ft | 492 kts | 150° |
| 2026-05-07 01:57 | 27.77805 | -80.08996 | 32507 ft | 493 kts | 150° |
| 2026-05-07 01:57 | 27.74918 | -80.06894 | 33026 ft | 491 kts | 150° |
| 2026-05-07 01:57 | 27.72052 | -80.04809 | 33589 ft | 489 kts | 150° |
| 2026-05-07 01:58 | 27.69203 | -80.02739 | 34098 ft | 486 kts | 150° |
| 2026-05-07 01:58 | 27.66360 | -80.00676 | 34504 ft | 486 kts | 150° |
| 2026-05-07 01:58 | 27.63507 | -79.98609 | 34851 ft | 486 kts | 150° |
| 2026-05-07 01:58 | 27.60663 | -79.96549 | 35203 ft | 486 kts | 150° |
| 2026-05-07 01:59 | 27.57818 | -79.94490 | 35578 ft | 485 kts | 150° |
| 2026-05-07 01:59 | 27.54976 | -79.92433 | 35954 ft | 484 kts | 150° |
| 2026-05-07 01:59 | 27.52143 | -79.90384 | 36302 ft | 484 kts | 150° |
| 2026-05-07 01:59 | 27.49308 | -79.88336 | 36612 ft | 484 kts | 151° |
| 2026-05-07 02:00 | 27.46506 | -79.86312 | 36917 ft | 484 kts | 151° |
| 2026-05-07 02:00 | 27.43669 | -79.84264 | 37124 ft | 487 kts | 151° |
| 2026-05-07 02:00 | 27.40798 | -79.82194 | 37099 ft | 491 kts | 151° |
| 2026-05-07 02:01 | 27.35069 | -79.78062 | 37089 ft | 485 kts | 151° |
| 2026-05-07 02:01 | 27.29416 | -79.73991 | 37107 ft | 482 kts | 151° |
| 2026-05-07 02:02 | 27.24018 | -79.69461 | 37109 ft | 487 kts | 137° |
| 2026-05-07 02:02 | 27.19709 | -79.63548 | 37110 ft | 490 kts | 128° |
| 2026-05-07 02:03 | 27.15591 | -79.57331 | 37113 ft | 504 kts | 128° |
| 2026-05-07 02:03 | 27.11324 | -79.50958 | 37114 ft | 516 kts | 128° |
| 2026-05-07 02:04 | 27.06932 | -79.44498 | 37097 ft | 524 kts | 128° |
| 2026-05-07 02:04 | 27.02502 | -79.38021 | 37094 ft | 523 kts | 128° |
| 2026-05-07 02:05 | 26.98071 | -79.31551 | 37091 ft | 522 kts | 128° |
| 2026-05-07 02:05 | 26.93646 | -79.25096 | 37092 ft | 522 kts | 128° |
| 2026-05-07 02:06 | 26.89255 | -79.18696 | 37102 ft | 521 kts | 128° |
| 2026-05-07 02:06 | 26.84841 | -79.12272 | 37101 ft | 520 kts | 128° |
| 2026-05-07 02:07 | 26.80424 | -79.05854 | 37102 ft | 520 kts | 128° |
| 2026-05-07 02:07 | 26.73789 | -78.96230 | 37099 ft | 520 kts | 128° |
| 2026-05-07 02:08 | 26.69370 | -78.89831 | 37104 ft | 520 kts | 128° |
| 2026-05-07 02:08 | 26.64948 | -78.83436 | 37103 ft | 519 kts | 128° |
| 2026-05-07 02:09 | 26.60527 | -78.77051 | 37103 ft | 519 kts | 128° |
| 2026-05-07 02:09 | 26.56107 | -78.70677 | 37102 ft | 519 kts | 128° |
| 2026-05-07 02:10 | 26.51654 | -78.64327 | 37100 ft | 519 kts | 128° |
| 2026-05-07 02:10 | 26.47177 | -78.58002 | 37102 ft | 519 kts | 128° |
| 2026-05-07 02:11 | 26.42698 | -78.51676 | 37103 ft | 519 kts | 128° |
| 2026-05-07 02:11 | 26.38237 | -78.45420 | 37099 ft | 519 kts | 128° |
| 2026-05-07 02:12 | 26.33743 | -78.39128 | 37101 ft | 518 kts | 128° |
| 2026-05-07 02:12 | 26.29250 | -78.32837 | 37104 ft | 518 kts | 128° |
| 2026-05-07 02:13 | 26.24761 | -78.26557 | 37105 ft | 518 kts | 128° |
| 2026-05-07 02:13 | 26.20273 | -78.20289 | 37103 ft | 517 kts | 128° |
| 2026-05-07 02:14 | 26.15780 | -78.14024 | 37107 ft | 517 kts | 128° |
| 2026-05-07 02:14 | 26.11308 | -78.07794 | 37108 ft | 517 kts | 128° |
| 2026-05-07 02:15 | 26.06823 | -78.01552 | 37106 ft | 517 kts | 128° |
| 2026-05-07 02:15 | 26.02332 | -77.95309 | 37108 ft | 517 kts | 128° |
| 2026-05-07 02:16 | 25.97838 | -77.89070 | 37102 ft | 517 kts | 128° |
| 2026-05-07 02:16 | 25.93339 | -77.82833 | 37105 ft | 517 kts | 128° |
| 2026-05-07 02:17 | 25.91079 | -77.79705 | 36667 ft | 523 kts | 128° |
| 2026-05-07 02:17 | 25.88803 | -77.76557 | 36033 ft | 523 kts | 128° |
| 2026-05-07 02:17 | 25.86529 | -77.73416 | 35328 ft | 520 kts | 128° |
| 2026-05-07 02:17 | 25.84271 | -77.70297 | 34621 ft | 517 kts | 128° |
| 2026-05-07 02:18 | 25.82024 | -77.67197 | 34092 ft | 514 kts | 128° |
| 2026-05-07 02:18 | 25.79789 | -77.64111 | 33454 ft | 513 kts | 128° |
| 2026-05-07 02:18 | 25.77543 | -77.61013 | 32917 ft | 517 kts | 128° |
| 2026-05-07 02:18 | 25.75274 | -77.57885 | 32365 ft | 523 kts | 128° |
| 2026-05-07 02:19 | 25.72981 | -77.54728 | 31808 ft | 524 kts | 128° |
| 2026-05-07 02:19 | 25.70495 | -77.51810 | 31110 ft | 515 kts | 141° |
| 2026-05-07 02:19 | 25.67665 | -77.49463 | 30161 ft | 501 kts | 145° |
| 2026-05-07 02:19 | 25.64654 | -77.47609 | 28834 ft | 491 kts | 163° |
| 2026-05-07 02:20 | 25.61404 | -77.46954 | 27649 ft | 476 kts | 183° |
| 2026-05-07 02:20 | 25.58165 | -77.47381 | 26431 ft | 465 kts | 193° |
| 2026-05-07 02:20 | 25.54968 | -77.47817 | 25217 ft | 462 kts | 185° |
| 2026-05-07 02:20 | 25.51777 | -77.48055 | 24071 ft | 456 kts | 190° |
| 2026-05-07 02:21 | 25.48772 | -77.48972 | 22804 ft | 445 kts | 205° |
| 2026-05-07 02:21 | 25.45946 | -77.50305 | 21535 ft | 439 kts | 206° |
| 2026-05-07 02:21 | 25.43163 | -77.51658 | 20296 ft | 433 kts | 206° |
| 2026-05-07 02:21 | 25.40418 | -77.52985 | 19112 ft | 428 kts | 206° |
| 2026-05-07 02:22 | 25.37695 | -77.54280 | 17842 ft | 423 kts | 205° |
| 2026-05-07 02:22 | 25.34978 | -77.55555 | 16128 ft | 427 kts | 204° |
| 2026-05-07 02:22 | 25.32237 | -77.56829 | 14524 ft | 426 kts | 202° |
| 2026-05-07 02:22 | 25.29570 | -77.58062 | 12856 ft | 403 kts | 202° |
| 2026-05-07 02:23 | 25.27052 | -77.59224 | 11219 ft | 382 kts | 202° |
| 2026-05-07 02:23 | 25.24655 | -77.60331 | 9603 ft | 365 kts | 202° |
| 2026-05-07 02:23 | 25.22304 | -77.61192 | 7912 ft | 349 kts | 188° |
| 2026-05-07 02:23 | 25.19941 | -77.61035 | 6303 ft | 337 kts | 167° |
| 2026-05-07 02:24 | 25.17785 | -77.60157 | 4651 ft | 326 kts | 153° |
| 2026-05-07 02:24 | 25.15936 | -77.58789 | 3051 ft | 314 kts | 140° |
| 2026-05-07 02:24 | 25.14350 | -77.57278 | 2489 ft | 280 kts | 137° |
| 2026-05-07 02:24 | 25.12957 | -77.55930 | 2118 ft | 259 kts | 138° |
| 2026-05-07 02:25 | 25.11645 | -77.54678 | 1793 ft | 241 kts | 138° |
| 2026-05-07 02:25 | 25.10452 | -77.53474 | 1510 ft | 224 kts | 134° |
| 2026-05-07 02:25 | 25.09400 | -77.52297 | 1216 ft | 208 kts | 133° |
| 2026-05-07 02:25 | 25.08423 | -77.51201 | 951 ft | 193 kts | 133° |
| 2026-05-07 02:26 | 25.07533 | -77.50208 | 722 ft | 172 kts | 133° |
| 2026-05-07 02:26 | 25.06738 | -77.49320 | 516 ft | 154 kts | 133° |
| 2026-05-07 02:26 | 25.06026 | -77.48523 | 339 ft | 142 kts | 133° |
| 2026-05-07 02:26 | 25.05361 | -77.47768 | 107 ft | 135 kts | 133° |
| 2026-05-07 02:27 | 25.04933 | -77.47290 | 27 ft | 126 kts | 133° |
| 2026-05-07 02:27 | 25.04413 | -77.46713 | 18 ft | 77 kts | 135° |
| 2026-05-07 02:27 | 25.04208 | -77.46487 | 16 ft | 27 kts | 134° |
| 2026-05-07 02:27 | 25.04136 | -77.46337 | 17 ft | 13 kts | 109° |
| 2026-05-07 02:28 | 25.04107 | -77.46250 | 18 ft | 12 kts | 110° |
| 2026-05-07 02:28 | 25.04093 | -77.46194 | 17 ft | 0 kts | 92° |
| 2026-05-07 02:29 | 25.04094 | -77.46192 | 17 ft | 2 kts | 80° |
| 2026-05-07 02:29 | 25.04138 | -77.46180 | 16 ft | 14 kts | 343° |
| 2026-05-07 02:29 | 25.04252 | -77.46285 | 17 ft | 29 kts | 316° |
| 2026-05-07 02:30 | 25.04425 | -77.46472 | 18 ft | 41 kts | 314° |
| 2026-05-07 02:30 | 25.04651 | -77.46725 | 19 ft | 51 kts | 316° |
| 2026-05-07 02:30 | 25.04826 | -77.46916 | 19 ft | 25 kts | 316° |
| 2026-05-07 02:30 | 25.04966 | -77.46908 | 16 ft | 16 kts | 48° |
| 2026-05-07 02:31 | 25.05022 | -77.46837 | 16 ft | 9 kts | 348° |
| 2026-05-07 02:31 | 25.05054 | -77.46846 | 18 ft | 0 kts | 347° |